createdAt,value
2022-09-03T00:01:25.375Z,17.60
2022-09-03T00:06:46.402Z,17.50
2022-09-03T00:12:09.937Z,17.50
2022-09-03T00:17:25.811Z,17.40
2022-09-03T00:22:33.310Z,17.40
2022-09-03T00:27:39.837Z,17.30
2022-09-03T00:32:47.382Z,17.30
2022-09-03T00:37:50.863Z,17.30
2022-09-03T00:43:07.022Z,17.20
2022-09-03T00:48:38.188Z,17.20
2022-09-03T00:54:01.380Z,17.10
2022-09-03T00:59:31.105Z,17.10
2022-09-03T01:04:44.904Z,17.00
2022-09-03T01:10:00.429Z,16.90
2022-09-03T01:15:07.669Z,16.90
2022-09-03T01:20:22.301Z,16.90
2022-09-03T01:25:43.807Z,16.80
2022-09-03T01:30:54.709Z,16.80
2022-09-03T01:36:25.146Z,16.70
2022-09-03T01:42:20.479Z,16.70
2022-09-03T01:47:32.733Z,16.70
2022-09-03T01:53:07.734Z,16.70
2022-09-03T01:58:14.263Z,16.70
2022-09-03T02:03:17.042Z,16.70
2022-09-03T02:08:19.550Z,16.70
2022-09-03T02:13:26.839Z,16.70
2022-09-03T02:18:41.529Z,16.70
2022-09-03T02:23:43.289Z,16.70
2022-09-03T02:28:45.384Z,16.70
2022-09-03T02:33:48.953Z,16.70
2022-09-03T02:38:50.870Z,16.70
2022-09-03T02:44:02.839Z,16.70
2022-09-03T02:49:05.632Z,16.70
2022-09-03T02:54:08.365Z,16.70
2022-09-03T02:59:10.750Z,16.70
2022-09-03T03:04:12.484Z,16.70
2022-09-03T03:09:14.239Z,16.80
2022-09-03T03:14:16.082Z,16.80
2022-09-03T03:19:18.180Z,16.80
2022-09-03T03:24:20.016Z,16.80
2022-09-03T03:29:21.823Z,16.80
2022-09-03T03:34:23.539Z,16.80
2022-09-03T03:39:25.546Z,16.90
2022-09-03T03:44:27.239Z,16.90
2022-09-03T03:49:28.923Z,16.90
2022-09-03T03:54:30.921Z,17.00
2022-09-03T03:59:32.588Z,17.00
2022-09-03T04:04:34.293Z,17.00
2022-09-03T04:09:36.160Z,17.00
2022-09-03T04:14:38.429Z,17.00
2022-09-03T04:19:40.164Z,17.10
2022-09-03T04:24:41.940Z,17.10
2022-09-03T04:29:43.675Z,17.10
2022-09-03T04:34:45.844Z,17.10
2022-09-03T04:39:47.624Z,17.10
2022-09-03T04:44:49.444Z,17.10
2022-09-03T04:49:51.205Z,17.10
2022-09-03T04:54:53.133Z,17.10
2022-09-03T04:59:55.397Z,17.00
2022-09-03T05:04:57.137Z,17.00
2022-09-03T05:09:58.941Z,17.00
2022-09-03T05:15:00.667Z,17.00
2022-09-03T05:20:02.537Z,17.00
2022-09-03T05:25:04.544Z,17.00
2022-09-03T05:30:07.121Z,17.10
2022-09-03T05:35:10.651Z,17.10
2022-09-03T05:40:12.492Z,17.10
2022-09-03T05:45:15.381Z,17.20
2022-09-03T05:50:17.151Z,17.20
2022-09-03T05:55:19.711Z,17.30
2022-09-03T06:00:23.607Z,17.30
2022-09-03T06:05:25.383Z,17.40
2022-09-03T06:10:34.432Z,17.30
2022-09-03T06:15:40.555Z,17.40
2022-09-03T06:20:42.227Z,17.40
2022-09-03T06:25:43.924Z,17.50
2022-09-03T06:30:48.036Z,17.50
2022-09-03T06:35:57.495Z,17.50
2022-09-03T06:41:04.569Z,17.60
2022-09-03T06:46:09.940Z,17.70
2022-09-03T06:51:14.284Z,17.70
2022-09-03T06:56:18.975Z,17.80
2022-09-03T07:01:23.830Z,17.80
2022-09-03T07:06:27.940Z,17.90
2022-09-03T07:11:33.261Z,17.90
2022-09-03T07:16:36.913Z,17.80
2022-09-03T07:21:44.039Z,17.80
2022-09-03T07:26:49.151Z,17.70
2022-09-03T07:31:52.627Z,17.50
2022-09-03T07:36:55.184Z,17.30
2022-09-03T07:41:58.173Z,17.20
2022-09-03T07:47:00.791Z,17.00
2022-09-03T07:52:03.017Z,16.60
2022-09-03T07:57:05.014Z,16.40
2022-09-03T08:02:06.908Z,16.30
2022-09-03T08:07:08.640Z,16.20
2022-09-03T08:12:10.399Z,16.10
2022-09-03T08:17:13.396Z,16.00
2022-09-03T08:22:15.181Z,16.00
2022-09-03T08:27:17.565Z,16.00
2022-09-03T08:32:19.316Z,16.10
2022-09-03T08:37:21.072Z,16.20
2022-09-03T08:42:42.120Z,16.20
2022-09-03T08:47:43.774Z,16.30
2022-09-03T08:52:49.009Z,16.40
2022-09-03T08:58:14.119Z,16.50
2022-09-03T09:03:34.768Z,16.70
2022-09-03T09:08:59.030Z,16.80
2022-09-03T09:14:13.184Z,17.00
2022-09-03T09:19:37.550Z,17.10
2022-09-03T09:24:45.391Z,17.30
2022-09-03T09:29:49.941Z,17.40
2022-09-03T09:34:54.975Z,17.50
2022-09-03T09:40:01.056Z,17.60
2022-09-03T09:45:11.217Z,17.80
2022-09-03T09:50:24.778Z,17.80
2022-09-03T09:55:28.856Z,17.90
2022-09-03T10:00:34.143Z,18.00
2022-09-03T10:05:40.558Z,18.20
2022-09-03T10:10:48.975Z,18.30
2022-09-03T10:16:10.894Z,18.40
2022-09-03T10:21:15.795Z,18.60
2022-09-03T10:26:20.749Z,19.00
2022-09-03T10:31:41.772Z,19.30
2022-09-03T10:36:56.777Z,19.70
2022-09-03T10:42:45.721Z,19.70
2022-09-03T10:48:21.304Z,19.60
2022-09-03T10:53:32.190Z,19.70
2022-09-03T10:58:55.803Z,19.80
2022-09-03T11:04:19.878Z,19.80
2022-09-03T11:09:35.404Z,19.90
2022-09-03T11:14:46.861Z,20.10
2022-09-03T11:20:25.412Z,20.20
2022-09-03T11:25:37.425Z,20.30
2022-09-03T11:31:00.246Z,20.60
2022-09-03T11:36:09.351Z,20.70
2022-09-03T11:41:35.651Z,20.80
2022-09-03T11:46:41.149Z,21.00
2022-09-03T11:51:44.100Z,21.20
2022-09-03T11:56:45.805Z,21.40
2022-09-03T12:01:56.752Z,21.70
2022-09-03T12:07:17.584Z,21.90
2022-09-03T12:12:32.553Z,22.00
2022-09-03T12:18:16.172Z,22.30
2022-09-03T12:23:39.803Z,22.50
2022-09-03T12:28:45.599Z,22.60
2022-09-03T12:33:49.357Z,22.80
2022-09-03T12:39:11.022Z,23.20
2022-09-03T12:44:13.733Z,23.40
2022-09-03T12:49:31.206Z,23.70
2022-09-03T12:54:37.616Z,23.80
2022-09-03T12:59:39.909Z,24.20
2022-09-03T13:04:42.273Z,24.30
2022-09-03T13:09:47.180Z,24.40
2022-09-03T13:14:52.530Z,24.50
2022-09-03T13:20:19.507Z,24.70
2022-09-03T13:25:28.968Z,24.70
2022-09-03T13:30:43.081Z,24.90
2022-09-03T13:36:05.554Z,24.80
2022-09-03T13:41:20.183Z,24.90
2022-09-03T13:46:33.395Z,24.90
2022-09-03T13:51:49.756Z,25.10
2022-09-03T13:57:05.519Z,25.10
2022-09-03T14:02:32.003Z,25.10
2022-09-03T14:07:57.566Z,25.10
2022-09-03T14:13:14.468Z,25.20
2022-09-03T14:18:35.715Z,25.20
2022-09-03T14:23:53.812Z,25.30
2022-09-03T14:29:20.955Z,25.40
2022-09-03T14:34:37.439Z,25.60
2022-09-03T14:40:10.306Z,25.70
2022-09-03T14:45:39.396Z,25.70
2022-09-03T14:51:19.201Z,25.50
2022-09-03T14:56:39.461Z,25.40
2022-09-03T15:01:43.672Z,25.20
2022-09-03T15:06:51.493Z,25.20
2022-09-03T15:11:57.404Z,25.10
2022-09-03T15:17:17.389Z,25.10
2022-09-03T15:22:54.190Z,25.00
2022-09-03T15:28:34.871Z,24.90
2022-09-03T15:34:08.814Z,24.80
2022-09-03T15:39:21.137Z,24.60
2022-09-03T15:44:25.151Z,24.20
2022-09-03T15:49:36.034Z,23.80
2022-09-03T15:54:48.155Z,23.40
2022-09-03T16:00:06.117Z,23.10
2022-09-03T16:05:46.642Z,22.70
2022-09-03T16:11:12.958Z,22.10
2022-09-03T16:16:42.311Z,21.50
2022-09-03T16:22:13.708Z,20.90
2022-09-03T16:27:25.153Z,20.40
2022-09-03T16:32:59.752Z,20.10
2022-09-03T16:38:20.624Z,19.70
2022-09-03T16:43:54.957Z,19.30
2022-09-03T16:49:33.701Z,19.10
2022-09-03T16:55:11.806Z,19.00
2022-09-03T17:00:19.742Z,18.90
2022-09-03T17:05:39.894Z,18.70
2022-09-03T17:11:18.873Z,18.70
2022-09-03T17:16:32.231Z,18.70
2022-09-03T17:22:06.175Z,18.70
2022-09-03T17:27:11.021Z,18.80
2022-09-03T17:32:33.936Z,18.80
2022-09-03T17:37:55.560Z,18.90
2022-09-03T17:43:19.351Z,18.90
2022-09-03T17:48:51.432Z,18.80
2022-09-03T17:54:32.049Z,18.80
2022-09-03T18:00:05.981Z,18.80
2022-09-03T18:05:07.853Z,18.80
2022-09-03T18:10:18.276Z,18.80
2022-09-03T18:15:31.109Z,18.80
2022-09-03T18:27:26.593Z,18.70
2022-09-03T18:32:49.323Z,18.70
2022-09-03T18:38:09.986Z,18.70
2022-09-03T18:44:03.066Z,18.70
2022-09-03T18:49:38.361Z,18.60
2022-09-03T18:55:20.701Z,18.50
2022-09-03T19:00:42.312Z,18.50
2022-09-03T19:06:36.248Z,18.40
2022-09-03T19:12:22.380Z,18.40
2022-09-03T19:18:00.144Z,18.40
2022-09-03T19:23:22.073Z,18.30
2022-09-03T19:28:44.696Z,18.30
2022-09-03T19:34:46.516Z,18.30
2022-09-03T19:40:20.217Z,18.30
2022-09-03T19:46:04.916Z,18.20
2022-09-03T19:51:39.244Z,18.20
2022-09-03T19:57:00.244Z,18.20
2022-09-03T20:02:20.880Z,18.10
2022-09-03T20:07:41.520Z,18.10
2022-09-03T20:12:49.892Z,18.10
2022-09-03T20:18:17.160Z,18.10
2022-09-03T20:23:37.097Z,18.10
2022-09-03T20:29:09.879Z,18.00
2022-09-03T20:34:33.524Z,17.90
2022-09-03T20:40:07.710Z,18.00
2022-09-03T20:45:17.690Z,17.90
2022-09-03T20:50:27.407Z,17.90
2022-09-03T20:55:54.236Z,17.80
2022-09-03T21:01:10.016Z,17.80
2022-09-03T21:06:14.545Z,17.80
2022-09-03T21:11:30.117Z,17.80
2022-09-03T21:17:04.877Z,17.80
2022-09-03T21:23:01.768Z,17.80
2022-09-03T21:28:24.461Z,17.70
2022-09-03T21:33:31.615Z,17.70
2022-09-03T21:38:38.240Z,17.60
2022-09-03T21:44:00.537Z,17.60
2022-09-03T21:49:12.091Z,17.60
2022-09-03T21:54:30.049Z,17.60
2022-09-03T21:59:56.303Z,17.50
2022-09-03T22:04:59.201Z,17.60
2022-09-03T22:10:16.674Z,17.60
2022-09-03T22:15:20.847Z,17.50
2022-09-03T22:20:24.785Z,17.50
2022-09-03T22:25:58.948Z,17.40
2022-09-03T22:31:15.380Z,17.50
2022-09-03T22:36:28.428Z,17.50
2022-09-03T22:41:45.281Z,17.50
2022-09-03T22:47:10.887Z,17.40
2022-09-03T22:52:23.373Z,17.50
2022-09-03T22:57:29.122Z,17.50
2022-09-03T23:02:32.265Z,17.40
2022-09-03T23:07:53.783Z,17.40
2022-09-03T23:13:10.937Z,17.40
2022-09-03T23:18:22.222Z,17.30
2022-09-03T23:23:31.746Z,17.20
2022-09-03T23:28:36.695Z,17.20
2022-09-03T23:33:39.396Z,17.20
2022-09-03T23:39:09.167Z,17.20
2022-09-03T23:44:34.745Z,17.10
2022-09-03T23:49:39.463Z,17.10
2022-09-03T23:54:52.969Z,17.10
